sensor_id;sensor_type;location;lat;lon;timestamp;pressure;altitude;pressure_sealevel;temperature;humidity
73692;BME280;61996;49.910;35.562;2022-12-07T00:02:58;100302.53;;;18.95;39.41
73692;BME280;61996;49.910;35.562;2022-12-07T00:06:01;100302.53;;;18.95;39.20
73692;BME280;61996;49.910;35.562;2022-12-07T00:09:05;100293.44;;;18.98;39.35
73692;BME280;61996;49.910;35.562;2022-12-07T00:12:09;100294.66;;;18.94;39.51
73692;BME280;61996;49.910;35.562;2022-12-07T00:15:13;100290.19;;;18.94;39.44
73692;BME280;61996;49.910;35.562;2022-12-07T00:18:15;100283.03;;;18.95;39.39
73692;BME280;61996;49.910;35.562;2022-12-07T00:21:19;100284.50;;;18.87;39.51
73692;BME280;61996;49.910;35.562;2022-12-07T00:24:22;100287.16;;;18.87;39.30
73692;BME280;61996;49.910;35.562;2022-12-07T00:27:25;100282.41;;;18.91;39.42
73692;BME280;61996;49.910;35.562;2022-12-07T00:30:29;100275.44;;;18.79;39.51
73692;BME280;61996;49.910;35.562;2022-12-07T00:33:32;100281.13;;;18.85;38.98
73692;BME280;61996;49.910;35.562;2022-12-07T00:36:35;100267.66;;;18.87;38.96
73692;BME280;61996;49.910;35.562;2022-12-07T00:39:38;100273.97;;;18.86;38.64
73692;BME280;61996;49.910;35.562;2022-12-07T00:42:41;100256.75;;;18.90;38.84
73692;BME280;61996;49.910;35.562;2022-12-07T00:45:45;100257.97;;;18.86;39.00
73692;BME280;61996;49.910;35.562;2022-12-07T00:48:48;100254.81;;;18.81;39.04
73692;BME280;61996;49.910;35.562;2022-12-07T00:51:51;100260.03;;;18.82;38.93
73692;BME280;61996;49.910;35.562;2022-12-07T00:54:54;100250.22;;;18.83;38.95
73692;BME280;61996;49.910;35.562;2022-12-07T00:57:57;100255.06;;;18.89;38.73
73692;BME280;61996;49.910;35.562;2022-12-07T01:01:02;100243.06;;;18.83;39.00
73692;BME280;61996;49.910;35.562;2022-12-07T01:04:05;100237.16;;;18.80;38.95
73692;BME280;61996;49.910;35.562;2022-12-07T01:07:08;100233.25;;;18.84;38.69
73692;BME280;61996;49.910;35.562;2022-12-07T01:10:10;100233.38;;;18.82;39.09
73692;BME280;61996;49.910;35.562;2022-12-07T01:13:13;100229.50;;;18.86;38.73
73692;BME280;61996;49.910;35.562;2022-12-07T01:16:18;100224.53;;;18.82;38.67
73692;BME280;61996;49.910;35.562;2022-12-07T01:19:21;100225.78;;;18.78;38.98
73692;BME280;61996;49.910;35.562;2022-12-07T01:22:25;100224.66;;;18.80;38.80
73692;BME280;61996;49.910;35.562;2022-12-07T01:25:27;100221.28;;;18.78;38.99
73692;BME280;61996;49.910;35.562;2022-12-07T01:28:30;100225.88;;;18.76;38.75
73692;BME280;61996;49.910;35.562;2022-12-07T01:31:34;100211.56;;;18.77;38.98
73692;BME280;61996;49.910;35.562;2022-12-07T01:34:37;100220.56;;;18.76;38.88
73692;BME280;61996;49.910;35.562;2022-12-07T01:37:40;100216.06;;;18.77;38.71
73692;BME280;61996;49.910;35.562;2022-12-07T01:40:43;100207.84;;;18.80;38.94
73692;BME280;61996;49.910;35.562;2022-12-07T01:47:08;100203.13;;;18.72;38.85
73692;BME280;61996;49.910;35.562;2022-12-07T01:50:11;100202.00;;;18.63;39.04
73692;BME280;61996;49.910;35.562;2022-12-07T01:53:13;100201.69;;;18.57;38.92
73692;BME280;61996;49.910;35.562;2022-12-07T01:56:18;100212.69;;;18.52;39.05
73692;BME280;61996;49.910;35.562;2022-12-07T01:59:23;100205.19;;;18.46;39.34
73692;BME280;61996;49.910;35.562;2022-12-07T02:02:29;100200.00;;;18.45;39.29
73692;BME280;61996;49.910;35.562;2022-12-07T02:05:34;100204.47;;;18.44;39.21
73692;BME280;61996;49.910;35.562;2022-12-07T02:08:37;100193.81;;;18.44;39.33
73692;BME280;61996;49.910;35.562;2022-12-07T02:11:40;100197.19;;;18.46;39.14
73692;BME280;61996;49.910;35.562;2022-12-07T02:14:44;100198.75;;;18.49;39.14
73692;BME280;61996;49.910;35.562;2022-12-07T02:17:49;100187.25;;;18.48;39.14
73692;BME280;61996;49.910;35.562;2022-12-07T02:20:56;100195.03;;;18.51;39.05
73692;BME280;61996;49.910;35.562;2022-12-07T02:24:13;100185.56;;;18.58;38.88
73692;BME280;61996;49.910;35.562;2022-12-07T02:27:22;100204.44;;;18.55;39.01
73692;BME280;61996;49.910;35.562;2022-12-07T02:30:31;100198.75;;;18.60;38.86
73692;BME280;61996;49.910;35.562;2022-12-07T02:33:36;100191.03;;;18.57;39.02
73692;BME280;61996;49.910;35.562;2022-12-07T02:36:39;100195.47;;;18.56;39.02
73692;BME280;61996;49.910;35.562;2022-12-07T02:39:46;100194.41;;;18.59;39.20
73692;BME280;61996;49.910;35.562;2022-12-07T02:42:53;100191.88;;;18.57;38.82
73692;BME280;61996;49.910;35.562;2022-12-07T02:46:01;100185.69;;;18.57;38.95
73692;BME280;61996;49.910;35.562;2022-12-07T02:49:05;100195.38;;;18.58;38.82
73692;BME280;61996;49.910;35.562;2022-12-07T02:52:09;100191.75;;;18.59;38.73
73692;BME280;61996;49.910;35.562;2022-12-07T02:55:12;100197.06;;;18.59;38.97
73692;BME280;61996;49.910;35.562;2022-12-07T02:58:20;100200.72;;;18.58;38.94
73692;BME280;61996;49.910;35.562;2022-12-07T03:01:28;100184.81;;;18.56;38.83
73692;BME280;61996;49.910;35.562;2022-12-07T03:04:35;100180.38;;;18.57;38.94
73692;BME280;61996;49.910;35.562;2022-12-07T03:07:42;100187.25;;;18.59;38.95
73692;BME280;61996;49.910;35.562;2022-12-07T03:10:50;100187.63;;;18.55;38.84
73692;BME280;61996;49.910;35.562;2022-12-07T03:13:56;100173.94;;;18.59;38.65
73692;BME280;61996;49.910;35.562;2022-12-07T03:17:05;100175.03;;;18.57;39.21
73692;BME280;61996;49.910;35.562;2022-12-07T03:20:11;100166.19;;;18.56;38.86
73692;BME280;61996;49.910;35.562;2022-12-07T03:23:15;100157.97;;;18.59;38.86
73692;BME280;61996;49.910;35.562;2022-12-07T03:26:21;100153.47;;;18.60;38.77
73692;BME280;61996;49.910;35.562;2022-12-07T03:29:26;100143.53;;;18.62;38.63
73692;BME280;61996;49.910;35.562;2022-12-07T03:32:33;100139.44;;;18.58;38.80
73692;BME280;61996;49.910;35.562;2022-12-07T03:35:38;100133.84;;;18.61;38.53
73692;BME280;61996;49.910;35.562;2022-12-07T03:38:44;100131.19;;;18.61;38.64
73692;BME280;61996;49.910;35.562;2022-12-07T03:41:47;100142.94;;;18.58;38.68
73692;BME280;61996;49.910;35.562;2022-12-07T03:44:51;100126.00;;;18.59;38.60
73692;BME280;61996;49.910;35.562;2022-12-07T03:47:58;100138.47;;;18.59;38.68
73692;BME280;61996;49.910;35.562;2022-12-07T03:51:06;100121.78;;;18.57;38.73
73692;BME280;61996;49.910;35.562;2022-12-07T03:54:13;100145.47;;;18.60;38.59
73692;BME280;61996;49.910;35.562;2022-12-07T03:57:19;100137.34;;;18.61;38.66
73692;BME280;61996;49.910;35.562;2022-12-07T04:00:22;100142.47;;;18.53;38.71
73692;BME280;61996;49.910;35.562;2022-12-07T04:03:26;100138.69;;;18.56;38.72
73692;BME280;61996;49.910;35.562;2022-12-07T04:06:29;100139.53;;;18.56;38.69
73692;BME280;61996;49.910;35.562;2022-12-07T04:09:32;100135.66;;;18.60;38.39
73692;BME280;61996;49.910;35.562;2022-12-07T04:12:34;100141.72;;;18.62;38.77
73692;BME280;61996;49.910;35.562;2022-12-07T04:15:37;100149.00;;;18.60;38.67
73692;BME280;61996;49.910;35.562;2022-12-07T04:18:41;100145.47;;;18.60;38.53
73692;BME280;61996;49.910;35.562;2022-12-07T04:21:44;100131.31;;;18.59;38.51
73692;BME280;61996;49.910;35.562;2022-12-07T04:24:47;100132.16;;;18.60;38.63
73692;BME280;61996;49.910;35.562;2022-12-07T04:27:50;100147.16;;;18.61;38.49
73692;BME280;61996;49.910;35.562;2022-12-07T04:30:53;100137.34;;;18.61;38.63
73692;BME280;61996;49.910;35.562;2022-12-07T04:33:57;100134.97;;;18.58;38.58
73692;BME280;61996;49.910;35.562;2022-12-07T04:37:00;100135.81;;;18.59;38.68
73692;BME280;61996;49.910;35.562;2022-12-07T04:40:03;100141.97;;;18.59;38.56
73692;BME280;61996;49.910;35.562;2022-12-07T04:43:06;100146.47;;;18.59;38.73
73692;BME280;61996;49.910;35.562;2022-12-07T04:46:08;100149.34;;;18.56;38.66
73692;BME280;61996;49.910;35.562;2022-12-07T04:49:13;100141.97;;;18.59;38.56
73692;BME280;61996;49.910;35.562;2022-12-07T04:52:16;100133.84;;;18.61;38.55
73692;BME280;61996;49.910;35.562;2022-12-07T04:55:19;100127.94;;;18.57;38.51
73692;BME280;61996;49.910;35.562;2022-12-07T04:58:22;100113.66;;;18.58;38.46
73692;BME280;61996;49.910;35.562;2022-12-07T05:01:24;100122.63;;;18.57;38.52
73692;BME280;61996;49.910;35.562;2022-12-07T05:04:29;100126.97;;;18.58;38.68
73692;BME280;61996;49.910;35.562;2022-12-07T05:07:31;100131.06;;;18.62;38.66
73692;BME280;61996;49.910;35.562;2022-12-07T05:10:34;100134.13;;;18.58;38.81
73692;BME280;61996;49.910;35.562;2022-12-07T05:13:37;100140.88;;;18.62;38.42
73692;BME280;61996;49.910;35.562;2022-12-07T05:16:40;100140.03;;;18.61;38.48
73692;BME280;61996;49.910;35.562;2022-12-07T05:19:45;100141.25;;;18.57;38.68
73692;BME280;61996;49.910;35.562;2022-12-07T05:22:47;100138.34;;;18.60;38.60
73692;BME280;61996;49.910;35.562;2022-12-07T05:25:50;100127.47;;;18.52;38.66
73692;BME280;61996;49.910;35.562;2022-12-07T05:28:54;100124.44;;;18.57;38.58
73692;BME280;61996;49.910;35.562;2022-12-07T05:31:57;100113.78;;;18.57;38.60
73692;BME280;61996;49.910;35.562;2022-12-07T05:35:01;100119.22;;;18.55;38.43
73692;BME280;61996;49.910;35.562;2022-12-07T05:38:04;100119.56;;;18.62;38.45
73692;BME280;61996;49.910;35.562;2022-12-07T05:41:07;100109.88;;;18.61;38.49
73692;BME280;61996;49.910;35.562;2022-12-07T05:44:30;100119.09;;;18.57;38.57
73692;BME280;61996;49.910;35.562;2022-12-07T05:47:33;100126.13;;;18.58;38.45
73692;BME280;61996;49.910;35.562;2022-12-07T05:50:37;100121.38;;;18.61;38.51
73692;BME280;61996;49.910;35.562;2022-12-07T05:53:40;100125.16;;;18.59;38.57
73692;BME280;61996;49.910;35.562;2022-12-07T05:56:43;100133.00;;;18.60;38.66
73692;BME280;61996;49.910;35.562;2022-12-07T05:59:45;100116.19;;;18.60;38.58
73692;BME280;61996;49.910;35.562;2022-12-07T06:02:48;100108.44;;;18.57;38.44
73692;BME280;61996;49.910;35.562;2022-12-07T06:05:53;100112.81;;;18.58;38.52
73692;BME280;61996;49.910;35.562;2022-12-07T06:08:56;100118.84;;;18.60;38.51
73692;BME280;61996;49.910;35.562;2022-12-07T06:11:59;100119.69;;;18.60;38.46
73692;BME280;61996;49.910;35.562;2022-12-07T06:15:19;100123.81;;;18.65;38.38
73692;BME280;61996;49.910;35.562;2022-12-07T06:18:21;100126.97;;;18.58;38.58
73692;BME280;61996;49.910;35.562;2022-12-07T06:21:26;100129.38;;;18.61;38.37
73692;BME280;61996;49.910;35.562;2022-12-07T06:24:28;100119.56;;;18.62;38.41
73692;BME280;61996;49.910;35.562;2022-12-07T06:27:31;100126.47;;;18.65;38.46
73692;BME280;61996;49.910;35.562;2022-12-07T06:30:35;100111.44;;;18.63;38.25
73692;BME280;61996;49.910;35.562;2022-12-07T06:33:37;100131.06;;;18.62;38.42
73692;BME280;61996;49.910;35.562;2022-12-07T06:36:42;100125.50;;;18.66;38.37
73692;BME280;61996;49.910;35.562;2022-12-07T06:39:45;100132.75;;;18.63;38.45
73692;BME280;61996;49.910;35.562;2022-12-07T06:42:48;100118.84;;;18.60;38.34
73692;BME280;61996;49.910;35.562;2022-12-07T06:45:51;100122.09;;;18.63;38.30
73692;BME280;61996;49.910;35.562;2022-12-07T06:48:54;100113.38;;;18.61;38.41
73692;BME280;61996;49.910;35.562;2022-12-07T06:51:58;100107.47;;;18.58;38.50
73692;BME280;61996;49.910;35.562;2022-12-07T06:55:02;100106.63;;;18.57;38.78
73692;BME280;61996;49.910;35.562;2022-12-07T06:58:04;100107.00;;;18.42;38.14
73692;BME280;61996;49.910;35.562;2022-12-07T07:01:08;100091.03;;;18.42;38.11
73692;BME280;61996;49.910;35.562;2022-12-07T07:04:11;100099.16;;;18.40;38.47
73692;BME280;61996;49.910;35.562;2022-12-07T07:07:15;100089.13;;;18.32;38.50
73692;BME280;61996;49.910;35.562;2022-12-07T07:10:18;100079.31;;;18.44;38.88
73692;BME280;61996;49.910;35.562;2022-12-07T07:13:21;100084.66;;;18.33;38.72
73692;BME280;61996;49.910;35.562;2022-12-07T07:16:24;100090.94;;;18.32;39.39
73692;BME280;61996;49.910;35.562;2022-12-07T07:19:26;100092.91;;;18.30;39.21
73692;BME280;61996;49.910;35.562;2022-12-07T07:22:31;100088.78;;;18.37;39.61
73692;BME280;61996;49.910;35.562;2022-12-07T07:25:33;100094.78;;;18.50;39.93
73692;BME280;61996;49.910;35.562;2022-12-07T07:28:37;100101.47;;;18.45;39.78
73692;BME280;61996;49.910;35.562;2022-12-07T07:31:39;100095.53;;;18.41;39.96
73692;BME280;61996;49.910;35.562;2022-12-07T07:34:42;100105.69;;;18.47;40.10
73692;BME280;61996;49.910;35.562;2022-12-07T07:37:46;100103.34;;;18.65;39.75
73692;BME280;61996;49.910;35.562;2022-12-07T07:40:49;100097.66;;;18.58;39.48
73692;BME280;61996;49.910;35.562;2022-12-07T07:43:52;100099.81;;;18.76;39.06
73692;BME280;61996;49.910;35.562;2022-12-07T07:46:55;100094.34;;;18.77;39.47
73692;BME280;61996;49.910;35.562;2022-12-07T07:49:58;100097.78;;;18.68;39.02
73692;BME280;61996;49.910;35.562;2022-12-07T07:53:02;100097.88;;;18.78;39.10
73692;BME280;61996;49.910;35.562;2022-12-07T07:56:05;100106.59;;;18.80;39.38
73692;BME280;61996;49.910;35.562;2022-12-07T07:59:08;100105.47;;;18.82;39.23
73692;BME280;61996;49.910;35.562;2022-12-07T08:02:12;100089.34;;;18.84;39.10
73692;BME280;61996;49.910;35.562;2022-12-07T08:05:16;100107.44;;;18.80;39.15
73692;BME280;61996;49.910;35.562;2022-12-07T08:08:20;100101.81;;;18.83;39.06
73692;BME280;61996;49.910;35.562;2022-12-07T08:11:23;100096.63;;;18.82;39.08
73692;BME280;61996;49.910;35.562;2022-12-07T08:14:26;100095.66;;;18.83;39.28
73692;BME280;61996;49.910;35.562;2022-12-07T08:17:30;100096.78;;;18.80;39.13
73692;BME280;61996;49.910;35.562;2022-12-07T08:20:33;100097.09;;;18.87;39.55
73692;BME280;61996;49.910;35.562;2022-12-07T08:23:37;100074.34;;;18.83;38.75
73692;BME280;61996;49.910;35.562;2022-12-07T08:26:40;100080.78;;;18.80;38.88
73692;BME280;61996;49.910;35.562;2022-12-07T08:29:43;100058.84;;;18.77;38.86
73692;BME280;61996;49.910;35.562;2022-12-07T08:32:46;100053.63;;;18.86;38.77
73692;BME280;61996;49.910;35.562;2022-12-07T08:35:49;100044.03;;;18.84;39.13
73692;BME280;61996;49.910;35.562;2022-12-07T08:38:53;100043.03;;;18.96;38.76
73692;BME280;61996;49.910;35.562;2022-12-07T08:42:16;100034.03;;;18.97;38.73
73692;BME280;61996;49.910;35.562;2022-12-07T08:45:20;100031.31;;;19.08;39.38
73692;BME280;61996;49.910;35.562;2022-12-07T08:48:28;100031.47;;;19.07;39.46
73692;BME280;61996;49.910;35.562;2022-12-07T08:51:30;100024.69;;;19.24;39.33
73692;BME280;61996;49.910;35.562;2022-12-07T08:54:35;100024.44;;;19.06;39.15
73692;BME280;61996;49.910;35.562;2022-12-07T08:57:40;100018.72;;;19.10;38.99
73692;BME280;61996;49.910;35.562;2022-12-07T09:00:44;100016.19;;;19.09;39.44
73692;BME280;61996;49.910;35.562;2022-12-07T09:03:46;100012.56;;;19.40;39.29
73692;BME280;61996;49.910;35.562;2022-12-07T13:13:33;99861.47;;;15.82;41.56
73692;BME280;61996;49.910;35.562;2022-12-07T13:16:40;99865.41;;;16.58;40.67
73692;BME280;61996;49.910;35.562;2022-12-07T13:22:55;99844.53;;;16.42;40.41
73692;BME280;61996;49.910;35.562;2022-12-07T13:26:04;99852.59;;;16.40;40.98
73692;BME280;61996;49.910;35.562;2022-12-07T13:29:11;99845.63;;;16.62;41.07
73692;BME280;61996;49.910;35.562;2022-12-07T13:32:17;99840.84;;;16.78;41.31
73692;BME280;61996;49.910;35.562;2022-12-07T13:35:33;99839.25;;;16.76;40.92
73692;BME280;61996;49.910;35.562;2022-12-07T13:38:36;99827.94;;;16.85;41.56
73692;BME280;61996;49.910;35.562;2022-12-07T13:41:41;99825.41;;;16.83;41.14
73692;BME280;61996;49.910;35.562;2022-12-07T13:44:45;99839.16;;;16.88;40.86
73692;BME280;61996;49.910;35.562;2022-12-07T13:47:48;99828.25;;;17.03;40.44
73692;BME280;61996;49.910;35.562;2022-12-07T13:50:53;99838.19;;;17.01;40.68
73692;BME280;61996;49.910;35.562;2022-12-07T13:53:59;99842.03;;;17.08;40.88
73692;BME280;61996;49.910;35.562;2022-12-07T13:57:02;99835.50;;;17.23;40.46
73692;BME280;61996;49.910;35.562;2022-12-07T14:00:13;99845.50;;;17.31;40.29
73692;BME280;61996;49.910;35.562;2022-12-07T14:03:26;99837.16;;;17.35;40.28
73692;BME280;61996;49.910;35.562;2022-12-07T14:06:29;99826.78;;;17.32;40.41
73692;BME280;61996;49.910;35.562;2022-12-07T14:09:32;99833.66;;;17.35;40.16
73692;BME280;61996;49.910;35.562;2022-12-07T14:12:36;99833.25;;;16.85;40.13
73692;BME280;61996;49.910;35.562;2022-12-07T14:15:40;99832.13;;;17.21;39.99
73692;BME280;61996;49.910;35.562;2022-12-07T14:18:43;99838.13;;;17.34;39.73
73692;BME280;61996;49.910;35.562;2022-12-07T14:21:46;99831.22;;;17.43;40.01
73692;BME280;61996;49.910;35.562;2022-12-07T14:24:49;99829.53;;;17.42;39.90
73692;BME280;61996;49.910;35.562;2022-12-07T14:27:53;99833.38;;;17.49;39.77
73692;BME280;61996;49.910;35.562;2022-12-07T14:30:59;99830.69;;;17.71;39.44
73692;BME280;61996;49.910;35.562;2022-12-07T14:34:01;99817.47;;;17.70;39.85
73692;BME280;61996;49.910;35.562;2022-12-07T14:37:06;99818.44;;;17.80;39.85
73692;BME280;61996;49.910;35.562;2022-12-07T14:40:12;99826.53;;;17.78;40.18
73692;BME280;61996;49.910;35.562;2022-12-07T14:43:16;99827.16;;;17.82;40.31
73692;BME280;61996;49.910;35.562;2022-12-07T14:46:20;99827.00;;;17.84;39.95
73692;BME280;61996;49.910;35.562;2022-12-07T14:49:23;99823.88;;;17.78;40.30
73692;BME280;61996;49.910;35.562;2022-12-07T14:52:33;99821.25;;;17.99;39.88
73692;BME280;61996;49.910;35.562;2022-12-07T14:55:56;99827.47;;;17.89;40.03
73692;BME280;61996;49.910;35.562;2022-12-07T14:58:59;99824.97;;;17.87;39.84
73692;BME280;61996;49.910;35.562;2022-12-07T15:02:03;99820.03;;;18.03;39.81
73692;BME280;61996;49.910;35.562;2022-12-07T15:05:06;99818.59;;;17.99;40.16
73692;BME280;61996;49.910;35.562;2022-12-07T15:08:16;99817.81;;;17.88;39.57
73692;BME280;61996;49.910;35.562;2022-12-07T15:11:19;99816.25;;;18.06;40.40
73692;BME280;61996;49.910;35.562;2022-12-07T15:14:22;99818.59;;;17.99;39.84
73692;BME280;61996;49.910;35.562;2022-12-07T15:17:29;99817.09;;;18.06;40.44
73692;BME280;61996;49.910;35.562;2022-12-07T15:20:33;99822.50;;;18.16;39.82
73692;BME280;61996;49.910;35.562;2022-12-07T20:14:42;99720.28;;;15.19;42.78
73692;BME280;61996;49.910;35.562;2022-12-07T20:17:45;99723.34;;;15.26;42.21
73692;BME280;61996;49.910;35.562;2022-12-07T20:20:51;99719.56;;;15.76;42.17
73692;BME280;61996;49.910;35.562;2022-12-07T20:23:54;99711.06;;;15.60;42.12
73692;BME280;61996;49.910;35.562;2022-12-07T20:26:57;99719.19;;;15.70;41.86
73692;BME280;61996;49.910;35.562;2022-12-07T20:30:01;99722.84;;;15.91;41.41
73692;BME280;61996;49.910;35.562;2022-12-07T20:33:03;99722.63;;;15.94;41.28
73692;BME280;61996;49.910;35.562;2022-12-07T20:36:09;99721.53;;;15.97;41.20
73692;BME280;61996;49.910;35.562;2022-12-07T20:39:12;99718.28;;;16.04;41.12
73692;BME280;61996;49.910;35.562;2022-12-07T20:42:15;99727.00;;;16.29;41.10
73692;BME280;61996;49.910;35.562;2022-12-07T20:45:36;99737.72;;;16.38;41.47
73692;BME280;61996;49.910;35.562;2022-12-07T21:09:26;99707.69;;;16.38;41.92
73692;BME280;61996;49.910;35.562;2022-12-07T21:12:28;99719.41;;;16.35;42.01
73692;BME280;61996;49.910;35.562;2022-12-07T21:15:31;99719.16;;;16.50;41.74
73692;BME280;61996;49.910;35.562;2022-12-07T21:18:34;99730.97;;;16.57;41.57
73692;BME280;61996;49.910;35.562;2022-12-07T21:21:38;99710.19;;;16.62;41.53
73692;BME280;61996;49.910;35.562;2022-12-07T21:24:42;99698.72;;;16.95;40.89
73692;BME280;61996;49.910;35.562;2022-12-07T21:27:45;99691.84;;;16.81;40.84
73692;BME280;61996;49.910;35.562;2022-12-07T21:30:48;99689.34;;;16.80;40.16
73692;BME280;61996;49.910;35.562;2022-12-07T21:34:11;99707.44;;;16.75;39.97
73692;BME280;61996;49.910;35.562;2022-12-07T21:37:14;99718.69;;;16.78;40.38
73692;BME280;61996;49.910;35.562;2022-12-07T21:40:19;99717.09;;;16.87;40.14
73692;BME280;61996;49.910;35.562;2022-12-07T21:43:21;99714.91;;;16.81;40.37
73692;BME280;61996;49.910;35.562;2022-12-07T21:46:25;99726.03;;;16.86;40.34
73692;BME280;61996;49.910;35.562;2022-12-07T21:49:34;99725.91;;;16.87;40.47
73692;BME280;61996;49.910;35.562;2022-12-07T21:52:37;99726.13;;;16.95;40.38
73692;BME280;61996;49.910;35.562;2022-12-07T21:55:41;99718.88;;;16.97;40.14
73692;BME280;61996;49.910;35.562;2022-12-07T21:58:44;99712.34;;;17.02;39.96
73692;BME280;61996;49.910;35.562;2022-12-07T22:01:47;99711.75;;;16.98;40.01
73692;BME280;61996;49.910;35.562;2022-12-07T22:04:50;99715.00;;;17.02;40.06
73692;BME280;61996;49.910;35.562;2022-12-07T22:07:52;99737.84;;;17.04;40.07
73692;BME280;61996;49.910;35.562;2022-12-07T22:11:00;99743.16;;;17.04;40.13
73692;BME280;61996;49.910;35.562;2022-12-07T22:14:03;99742.63;;;17.10;40.15
73692;BME280;61996;49.910;35.562;2022-12-07T22:17:24;99737.69;;;17.06;39.86
73692;BME280;61996;49.910;35.562;2022-12-07T22:20:28;99736.47;;;17.10;39.77
73692;BME280;61996;49.910;35.562;2022-12-07T22:23:31;99743.81;;;17.17;39.82
73692;BME280;61996;49.910;35.562;2022-12-07T22:26:35;99736.72;;;17.18;39.87
73692;BME280;61996;49.910;35.562;2022-12-07T22:29:38;99739.31;;;17.29;39.48
73692;BME280;61996;49.910;35.562;2022-12-07T22:32:41;99721.38;;;17.42;39.76
73692;BME280;61996;49.910;35.562;2022-12-07T22:35:50;99715.59;;;17.37;40.52
73692;BME280;61996;49.910;35.562;2022-12-07T22:38:53;99718.19;;;17.27;40.18
73692;BME280;61996;49.910;35.562;2022-12-07T22:41:58;99707.38;;;17.40;40.12
73692;BME280;61996;49.910;35.562;2022-12-07T22:45:00;99719.44;;;17.44;40.56
73692;BME280;61996;49.910;35.562;2022-12-07T22:48:04;99713.69;;;17.39;40.47
73692;BME280;61996;49.910;35.562;2022-12-07T22:51:15;99696.41;;;17.34;40.37
73692;BME280;61996;49.910;35.562;2022-12-07T22:54:19;99704.25;;;17.35;40.36
73692;BME280;61996;49.910;35.562;2022-12-07T22:57:24;99702.78;;;17.42;40.31
73692;BME280;61996;49.910;35.562;2022-12-07T23:00:26;99710.88;;;17.41;40.34
73692;BME280;61996;49.910;35.562;2022-12-07T23:03:29;99722.22;;;17.43;40.59
73692;BME280;61996;49.910;35.562;2022-12-07T23:06:32;99719.44;;;17.44;40.55
73692;BME280;61996;49.910;35.562;2022-12-07T23:09:36;99719.84;;;17.40;40.36
73692;BME280;61996;49.910;35.562;2022-12-07T23:12:41;99710.03;;;17.40;40.32
73692;BME280;61996;49.910;35.562;2022-12-07T23:16:15;99701.78;;;17.43;40.20
73692;BME280;61996;49.910;35.562;2022-12-07T23:19:18;99701.78;;;17.43;40.09
73692;BME280;61996;49.910;35.562;2022-12-07T23:22:21;99706.97;;;17.45;40.09
73692;BME280;61996;49.910;35.562;2022-12-07T23:25:24;99704.22;;;17.46;39.85
73692;BME280;61996;49.910;35.562;2022-12-07T23:28:28;99700.78;;;17.56;39.90
73692;BME280;61996;49.910;35.562;2022-12-07T23:31:31;99720.22;;;17.56;39.88
73692;BME280;61996;49.910;35.562;2022-12-07T23:34:34;99723.88;;;17.55;39.76
73692;BME280;61996;49.910;35.562;2022-12-07T23:37:36;99715.50;;;17.60;39.78
73692;BME280;61996;49.910;35.562;2022-12-07T23:40:39;99719.38;;;17.56;40.22
73692;BME280;61996;49.910;35.562;2022-12-07T23:43:43;99715.56;;;17.48;40.26
73692;BME280;61996;49.910;35.562;2022-12-07T23:46:46;99715.56;;;17.48;40.20
73692;BME280;61996;49.910;35.562;2022-12-07T23:49:49;99696.25;;;17.46;39.92
73692;BME280;61996;49.910;35.562;2022-12-07T23:52:52;99704.22;;;17.46;40.01
73692;BME280;61996;49.910;35.562;2022-12-07T23:55:56;99717.25;;;17.49;40.19
73692;BME280;61996;49.910;35.562;2022-12-07T23:59:00;99717.38;;;17.48;40.08
